To NAV CANADA Home Page Login to a new session Search on AWWS site Disclaimer Vers la page française équivalente Tips FAQ What's new on the site To the Forecasts and Observations / NOTAM section To "File a Flight Plan" website Publications and other links Update of the User's profile FIC Telephone Numbers My Weather Data Folder Route Weather Data Regional Weather Data Local Weather Data To the Forecasts and Observations / NOTAM section
Request Generated 04/24/2019 at 16:29:00 UTC . Weather information available at that time is displayed.

METAR/TAF

COMOX/BC    

METAR CYQQ 241600Z 36016KT 20SM FEW050 08/02 A3036 RMK SC1 SLP283=
METAR CYQQ 241500Z 34012G17KT 20SM FEW055 08/01 A3036 RMK SC1 SLP281=
METAR CYQQ 241400Z 34006KT 20SM FEW055 06/M01 A3035 RMK SC1 SLP278=

TAF CYQQ 241139Z 2412/2512 35010KT P6SM FEW050
RMK NXT FCST BY 241800Z=
Your time UTC time
Weather data provided by Environment Canada and NAV CANADA